Time;durP1;ratioP1;P1;durP2;ratioP2;P2;SDS_P1;SDS_P2;PMS_P1;PMS_P2;Temp;Humidity;BMP_temperature;BMP_pressure;BME280_temperature;BME280_humidity;BME280_pressure;Samples;Min_cycle;Max_cycle;Signal;HPM_P1;HPM_P2
2021/12/05 00:21:55;;;;;;;4.35;1.27;;;;;;;;;;5077758;28;20224;-69
2021/12/05 00:24:24;;;;;;;3.20;1.40;;;;;;;;;;5078806;28;20196;-69
2021/12/05 00:26:56;;;;;;;3.38;1.20;;;;;;;;;;5078880;28;20520;-69
2021/12/05 00:29:31;;;;;;;3.60;1.60;;;;;;;;;;5078991;28;20511;-69
2021/12/05 00:32:09;;;;;;;5.97;1.40;;;;;;;;;;5078925;28;20188;-69
2021/12/05 00:43:21;;;;;;;2.45;1.20;;;;;;;;;;5078456;28;20184;-69
2021/12/05 00:46:04;;;;;;;2.00;1.10;;;;;;;;;;5078187;28;20238;-69
2021/12/05 00:59:57;;;;;;;3.58;1.27;;;;;;;;;;5065034;28;20280;-67
2021/12/05 01:02:44;;;;;;;3.67;1.10;;;;;;;;;;5064954;28;20212;-68
2021/12/05 01:11:05;;;;;;;3.88;1.40;;;;;;;;;;5047031;28;20186;-67
2021/12/05 01:13:38;;;;;;;2.38;1.30;;;;;;;;;;5065711;28;20268;-69
2021/12/05 01:16:07;;;;;;;2.60;0.77;;;;;;;;;;5067864;28;20284;-69
2021/12/05 01:18:34;;;;;;;0.95;0.90;;;;;;;;;;5067247;28;20203;-69
2021/12/05 01:21:06;;;;;;;1.77;1.10;;;;;;;;;;5066253;28;20217;-67
2021/12/05 01:23:40;;;;;;;5.00;1.13;;;;;;;;;;5064678;28;20197;-67
2021/12/05 01:26:10;;;;;;;1.67;0.90;;;;;;;;;;5064218;28;20281;-67
2021/12/05 01:28:52;;;;;;;3.65;1.40;;;;;;;;;;5064459;28;20224;-67
2021/12/05 01:31:28;;;;;;;4.38;1.20;;;;;;;;;;5064619;28;20201;-67
2021/12/05 01:34:00;;;;;;;4.45;1.10;;;;;;;;;;5064859;28;20192;-67
2021/12/05 01:36:34;;;;;;;2.33;1.08;;;;;;;;;;5064336;28;20367;-67
2021/12/05 01:39:07;;;;;;;1.20;0.77;;;;;;;;;;5064440;28;20459;-66
2021/12/05 01:47:34;;;;;;;1.48;0.88;;;;;;;;;;5064380;28;20346;-67
2021/12/05 01:50:30;;;;;;;2.08;0.90;;;;;;;;;;5068035;28;20510;-68
2021/12/05 01:53:22;;;;;;;1.42;1.05;;;;;;;;;;5067043;28;20199;-69
2021/12/05 01:56:10;;;;;;;1.70;0.70;;;;;;;;;;5064976;28;20197;-67
2021/12/05 01:58:54;;;;;;;2.00;1.00;;;;;;;;;;5063889;28;20208;-67
2021/12/05 02:32:12;;;;;;;5.15;1.52;;;;;;;;;;5065252;28;20192;-68
2021/12/05 02:34:46;;;;;;;2.60;1.05;;;;;;;;;;5066103;28;20185;-69
2021/12/05 02:37:32;;;;;;;3.97;1.65;;;;;;;;;;5065318;28;20199;-67
2021/12/05 02:40:25;;;;;;;2.58;0.98;;;;;;;;;;5063008;28;20193;-67
2021/12/05 02:42:58;;;;;;;3.47;0.98;;;;;;;;;;5063401;28;20244;-67
2021/12/05 02:45:26;;;;;;;1.08;0.90;;;;;;;;;;5062635;28;20274;-67
2021/12/05 02:47:53;;;;;;;3.42;0.95;;;;;;;;;;5063206;28;20197;-67
2021/12/05 02:50:20;;;;;;;4.65;1.30;;;;;;;;;;5063155;28;20501;-66
2021/12/05 02:52:49;;;;;;;4.78;1.23;;;;;;;;;;5063121;28;20199;-66
2021/12/05 02:55:23;;;;;;;2.60;0.93;;;;;;;;;;5062453;28;20212;-66
2021/12/05 02:57:54;;;;;;;2.85;1.10;;;;;;;;;;5062722;28;20197;-68
2021/12/05 03:00:33;;;;;;;3.65;1.27;;;;;;;;;;5063009;28;20525;-68
2021/12/05 03:03:00;;;;;;;2.03;1.05;;;;;;;;;;5062942;28;20205;-69
2021/12/05 03:05:26;;;;;;;2.15;1.15;;;;;;;;;;5062645;28;20497;-69
2021/12/05 03:07:58;;;;;;;4.18;1.15;;;;;;;;;;5062582;28;20197;-69
2021/12/05 03:10:25;;;;;;;5.18;0.93;;;;;;;;;;5062460;28;20240;-69
2021/12/05 03:12:51;;;;;;;1.25;0.95;;;;;;;;;;5062679;28;20243;-69
2021/12/05 03:15:19;;;;;;;2.38;1.13;;;;;;;;;;5062147;28;20250;-68
2021/12/05 03:17:45;;;;;;;1.60;1.20;;;;;;;;;;5062387;28;20196;-68
2021/12/05 03:20:12;;;;;;;3.90;1.23;;;;;;;;;;5062482;28;20243;-68
2021/12/05 03:22:38;;;;;;;3.80;1.10;;;;;;;;;;5062599;28;20213;-66
2021/12/05 03:25:07;;;;;;;4.00;1.20;;;;;;;;;;5062040;28;20611;-67
2021/12/05 03:27:34;;;;;;;2.35;1.00;;;;;;;;;;5062556;28;20201;-66
2021/12/05 03:30:01;;;;;;;2.92;1.33;;;;;;;;;;5062349;28;20243;-66
2021/12/05 03:32:28;;;;;;;2.22;1.13;;;;;;;;;;5062179;28;20228;-67
2021/12/05 03:34:55;;;;;;;3.17;0.98;;;;;;;;;;5062312;28;20239;-68
2021/12/05 03:37:21;;;;;;;5.25;1.45;;;;;;;;;;5062232;28;20197;-66
2021/12/05 03:39:47;;;;;;;2.40;0.98;;;;;;;;;;5062020;28;20243;-66
2021/12/05 03:42:15;;;;;;;3.50;1.15;;;;;;;;;;5061978;28;20262;-66
2021/12/05 03:44:42;;;;;;;3.55;1.08;;;;;;;;;;5064222;28;20271;-69
2021/12/05 03:47:09;;;;;;;2.90;0.98;;;;;;;;;;5063959;28;20197;-67
2021/12/05 03:49:36;;;;;;;4.03;1.10;;;;;;;;;;5062085;28;20197;-66
2021/12/05 03:52:04;;;;;;;1.85;0.98;;;;;;;;;;5062058;28;20193;-66
2021/12/05 03:54:31;;;;;;;5.47;1.25;;;;;;;;;;5062137;28;20243;-66
2021/12/05 03:56:59;;;;;;;3.67;1.38;;;;;;;;;;5062239;28;20192;-66
2021/12/05 03:59:28;;;;;;;1.88;1.08;;;;;;;;;;5062006;28;20212;-66
2021/12/05 04:01:55;;;;;;;1.38;1.10;;;;;;;;;;5061836;28;20209;-66
2021/12/05 04:04:22;;;;;;;5.18;0.80;;;;;;;;;;5062216;28;20243;-66
2021/12/05 04:06:48;;;;;;;2.00;1.08;;;;;;;;;;5061710;28;20235;-66
2021/12/05 04:09:15;;;;;;;2.88;1.05;;;;;;;;;;5062259;28;20231;-66
2021/12/05 04:11:46;;;;;;;1.40;0.90;;;;;;;;;;5061875;28;20194;-66
2021/12/05 04:14:13;;;;;;;4.28;0.90;;;;;;;;;;5062131;28;20189;-66
2021/12/05 04:16:42;;;;;;;3.03;0.98;;;;;;;;;;5061691;28;20243;-66
2021/12/05 04:19:08;;;;;;;3.13;1.10;;;;;;;;;;5063468;28;20197;-68
2021/12/05 04:21:36;;;;;;;2.20;0.85;;;;;;;;;;5062169;28;20227;-67
2021/12/05 04:24:03;;;;;;;1.98;1.05;;;;;;;;;;5062117;28;20512;-66
2021/12/05 04:26:30;;;;;;;3.45;1.23;;;;;;;;;;5061819;28;20286;-66
2021/12/05 04:28:56;;;;;;;6.07;1.15;;;;;;;;;;5064946;28;20235;-68
2021/12/05 04:31:23;;;;;;;5.22;1.17;;;;;;;;;;5065599;28;20238;-68
2021/12/05 04:33:51;;;;;;;4.50;1.60;;;;;;;;;;5065374;28;20197;-66
2021/12/05 04:36:18;;;;;;;2.47;1.10;;;;;;;;;;5065448;28;20198;-66
2021/12/05 04:38:45;;;;;;;8.13;3.42;;;;;;;;;;5065477;28;20388;-66
2021/12/05 04:41:11;;;;;;;2.55;1.27;;;;;;;;;;5065442;28;20204;-66
2021/12/05 04:43:38;;;;;;;4.15;1.88;;;;;;;;;;5065260;28;20243;-66
2021/12/05 04:46:05;;;;;;;3.58;1.90;;;;;;;;;;5064982;28;20216;-66
2021/12/05 04:48:32;;;;;;;5.30;2.78;;;;;;;;;;5065070;28;20197;-66
2021/12/05 04:51:00;;;;;;;3.40;1.73;;;;;;;;;;5065258;28;20193;-66
2021/12/05 04:53:28;;;;;;;1.05;0.93;;;;;;;;;;5065406;28;20197;-66
2021/12/05 04:55:55;;;;;;;2.78;1.00;;;;;;;;;;5064880;28;20272;-68
2021/12/05 04:58:21;;;;;;;5.75;1.10;;;;;;;;;;5067579;28;20235;-68
2021/12/05 05:00:48;;;;;;;2.03;0.80;;;;;;;;;;5067975;28;20197;-68
2021/12/05 05:03:15;;;;;;;2.83;0.90;;;;;;;;;;5067268;28;20258;-68
2021/12/05 05:05:47;;;;;;;1.83;1.08;;;;;;;;;;5064567;28;20225;-68
2021/12/05 05:08:15;;;;;;;1.85;1.00;;;;;;;;;;5064815;28;20196;-66
2021/12/05 05:10:42;;;;;;;1.20;0.90;;;;;;;;;;5064765;28;20201;-66
2021/12/05 05:13:08;;;;;;;3.50;1.20;;;;;;;;;;5064834;28;20193;-66
2021/12/05 05:15:35;;;;;;;3.40;1.45;;;;;;;;;;5064719;28;20239;-66
2021/12/05 05:18:04;;;;;;;2.15;1.38;;;;;;;;;;5064545;28;20197;-66
2021/12/05 05:20:35;;;;;;;2.40;0.93;;;;;;;;;;5064686;28;20224;-68
2021/12/05 05:23:17;;;;;;;4.80;2.00;;;;;;;;;;5064598;28;20420;-68
2021/12/05 05:39:44;;;;;;;2.38;1.00;;;;;;;;;;5064072;28;20196;-66
2021/12/05 05:45:17;;;;;;;4.50;1.10;;;;;;;;;;5066845;28;20213;-67
2021/12/05 05:47:55;;;;;;;0.90;0.90;;;;;;;;;;5064342;28;20199;-66
2021/12/05 05:50:22;;;;;;;1.35;1.00;;;;;;;;;;5064046;28;20197;-66
2021/12/05 05:52:49;;;;;;;4.82;1.10;;;;;;;;;;5064010;28;20388;-66
2021/12/05 05:55:15;;;;;;;1.33;1.08;;;;;;;;;;5063925;28;20512;-66
2021/12/05 05:57:48;;;;;;;1.20;1.20;;;;;;;;;;5064129;28;20197;-66
2021/12/05 06:00:20;;;;;;;3.25;1.42;;;;;;;;;;5064167;28;20503;-66
2021/12/05 06:05:32;;;;;;;3.22;1.77;;;;;;;;;;5063483;28;20204;-66
2021/12/05 06:07:58;;;;;;;5.32;2.50;;;;;;;;;;5063878;28;20497;-66
2021/12/05 06:10:25;;;;;;;2.10;1.90;;;;;;;;;;5063896;28;20197;-66
2021/12/05 06:12:54;;;;;;;2.65;1.63;;;;;;;;;;5063803;28;20501;-66
2021/12/05 06:15:23;;;;;;;1.95;1.02;;;;;;;;;;5063451;28;20247;-66
2021/12/05 06:17:49;;;;;;;2.42;0.90;;;;;;;;;;5063699;28;20496;-66
2021/12/05 06:20:18;;;;;;;2.65;1.30;;;;;;;;;;5063530;28;20243;-66
2021/12/05 06:22:45;;;;;;;2.90;1.38;;;;;;;;;;5063359;28;20244;-68
2021/12/05 06:25:20;;;;;;;4.20;0.82;;;;;;;;;;5063245;28;20266;-68
2021/12/05 06:27:46;;;;;;;1.20;1.20;;;;;;;;;;5063380;28;20197;-68
2021/12/05 06:30:18;;;;;;;2.30;0.93;;;;;;;;;;5063481;28;20424;-68
2021/12/05 06:38:32;;;;;;;2.80;0.90;;;;;;;;;;5063214;28;20261;-70
2021/12/05 06:41:07;;;;;;;2.03;0.88;;;;;;;;;;5062837;28;20205;-70
2021/12/05 06:46:23;;;;;;;3.63;1.65;;;;;;;;;;5062635;28;20216;-69
2021/12/05 06:48:50;;;;;;;2.00;1.10;;;;;;;;;;5063190;28;20185;-69
2021/12/05 06:51:18;;;;;;;2.95;1.20;;;;;;;;;;5062232;28;20310;-69
2021/12/05 06:53:44;;;;;;;2.33;1.10;;;;;;;;;;5062786;28;20193;-69
2021/12/05 06:56:11;;;;;;;3.25;1.15;;;;;;;;;;5062577;28;20197;-69
2021/12/05 06:58:38;;;;;;;2.38;1.27;;;;;;;;;;5062981;28;20327;-69
2021/12/05 07:01:06;;;;;;;3.90;1.30;;;;;;;;;;5063203;28;20231;-70
2021/12/05 07:03:34;;;;;;;1.52;1.05;;;;;;;;;;5063302;28;20220;-71
2021/12/05 07:06:03;;;;;;;2.88;1.48;;;;;;;;;;5062981;28;20193;-71
2021/12/05 07:08:33;;;;;;;1.73;1.30;;;;;;;;;;5063424;28;20204;-71
2021/12/05 07:11:04;;;;;;;3.90;0.80;;;;;;;;;;5063201;28;20399;-71
2021/12/05 07:14:12;;;;;;;3.55;1.08;;;;;;;;;;5063277;28;20193;-70
2021/12/05 07:16:43;;;;;;;2.65;1.20;;;;;;;;;;5062639;28;20224;-70
2021/12/05 07:19:28;;;;;;;3.33;1.17;;;;;;;;;;5063290;28;20224;-70
2021/12/05 07:21:57;;;;;;;3.40;1.38;;;;;;;;;;5062950;28;20196;-70
2021/12/05 07:24:38;;;;;;;0.88;0.88;;;;;;;;;;5063087;28;20201;-70
2021/12/05 07:41:18;;;;;;;1.83;0.80;;;;;;;;;;5062637;28;20239;-71
2021/12/05 07:43:45;;;;;;;2.75;0.90;;;;;;;;;;5062663;28;20228;-71
2021/12/05 07:46:11;;;;;;;2.35;1.08;;;;;;;;;;5063121;28;20217;-71
2021/12/05 07:48:41;;;;;;;5.18;0.90;;;;;;;;;;5062722;28;20197;-70
2021/12/05 07:51:15;;;;;;;1.83;0.95;;;;;;;;;;5063187;28;20516;-71
2021/12/05 07:53:49;;;;;;;3.53;1.17;;;;;;;;;;5062840;28;20189;-70
2021/12/05 07:56:21;;;;;;;2.38;0.93;;;;;;;;;;5062732;28;20515;-70
2021/12/05 07:59:10;;;;;;;2.05;1.08;;;;;;;;;;5062864;28;20192;-70
2021/12/05 08:15:24;;;;;;;3.55;1.63;;;;;;;;;;5065621;28;20195;-70
2021/12/05 08:17:53;;;;;;;1.52;1.40;;;;;;;;;;5065785;28;20185;-71
2021/12/05 08:20:20;;;;;;;2.70;1.55;;;;;;;;;;5065697;28;20236;-70
2021/12/05 08:22:48;;;;;;;2.38;1.55;;;;;;;;;;5065645;28;20217;-70
2021/12/05 08:25:15;;;;;;;4.82;1.83;;;;;;;;;;5065260;28;20186;-70
2021/12/05 08:27:47;;;;;;;2.53;1.70;;;;;;;;;;5065719;28;20223;-60
2021/12/05 08:30:19;;;;;;;4.25;2.58;;;;;;;;;;5065781;28;20216;-60
2021/12/05 08:33:08;;;;;;;1.63;1.50;;;;;;;;;;5065484;28;20193;-60
2021/12/05 08:35:59;;;;;;;4.28;1.92;;;;;;;;;;5064766;28;20268;-60
2021/12/05 09:20:52;;;;;;;21.42;7.32;;;;;;;;;;5077922;28;20269;-53
2021/12/05 09:40:13;;;;;;;5.80;2.28;;;;;;;;;;5080522;28;20705;-57
2021/12/05 09:51:28;;;;;;;2.55;2.00;;;;;;;;;;5075067;28;20254;-56
2021/12/05 10:08:01;;;;;;;2.50;1.67;;;;;;;;;;5072384;28;20417;-56
2021/12/05 10:10:36;;;;;;;3.30;1.67;;;;;;;;;;5079798;28;20204;-56
2021/12/05 10:13:17;;;;;;;1.92;1.83;;;;;;;;;;5079911;28;20511;-56
2021/12/05 10:15:55;;;;;;;2.38;1.73;;;;;;;;;;5079682;28;20204;-57
2021/12/05 10:18:53;;;;;;;2.85;1.88;;;;;;;;;;5079787;28;20192;-55
2021/12/05 10:27:13;;;;;;;4.28;2.45;;;;;;;;;;5081446;28;20495;-54
2021/12/05 10:35:31;;;;;;;3.30;1.20;;;;;;;;;;5081702;28;20203;-54
2021/12/05 10:38:03;;;;;;;1.33;1.23;;;;;;;;;;5082348;28;20238;-53
2021/12/05 10:40:36;;;;;;;1.30;0.80;;;;;;;;;;5081839;28;20281;-54
2021/12/05 10:43:03;;;;;;;1.83;1.00;;;;;;;;;;5081769;28;20212;-53
2021/12/05 10:45:32;;;;;;;3.08;1.10;;;;;;;;;;5082037;28;20216;-53
2021/12/05 10:48:00;;;;;;;1.85;1.20;;;;;;;;;;5081573;28;20224;-52
2021/12/05 10:50:33;;;;;;;2.55;1.52;;;;;;;;;;5082275;28;20197;-53
2021/12/05 10:53:22;;;;;;;2.05;1.10;;;;;;;;;;5081458;28;20192;-52
2021/12/05 10:55:54;;;;;;;0.68;0.68;;;;;;;;;;5081359;28;20184;-54
2021/12/05 10:58:23;;;;;;;2.45;0.93;;;;;;;;;;5081730;28;20192;-53
2021/12/05 11:00:49;;;;;;;2.90;0.90;;;;;;;;;;5081440;28;20204;-53
2021/12/05 11:03:17;;;;;;;4.85;1.10;;;;;;;;;;5081644;28;20217;-53
2021/12/05 11:05:45;;;;;;;2.05;0.85;;;;;;;;;;5081161;28;20234;-53
2021/12/05 11:08:26;;;;;;;1.90;1.25;;;;;;;;;;5081239;28;20204;-54
2021/12/05 11:11:05;;;;;;;2.03;1.00;;;;;;;;;;5081262;28;20196;-52
2021/12/05 11:13:31;;;;;;;1.00;0.82;;;;;;;;;;5081502;28;20180;-52
2021/12/05 11:15:58;;;;;;;2.40;2.00;;;;;;;;;;5080700;28;20196;-54
2021/12/05 11:18:43;;;;;;;5.15;2.60;;;;;;;;;;5081304;28;20329;-52
2021/12/05 11:21:30;;;;;;;1.60;1.00;;;;;;;;;;5080955;28;20203;-53
2021/12/05 11:24:07;;;;;;;1.30;0.70;;;;;;;;;;5080772;28;20236;-53
2021/12/05 11:26:34;;;;;;;1.45;0.80;;;;;;;;;;5080797;28;20196;-52
2021/12/05 11:29:00;;;;;;;0.70;0.70;;;;;;;;;;5080837;28;20250;-55
2021/12/05 11:31:28;;;;;;;0.90;0.90;;;;;;;;;;5081110;28;20197;-54
2021/12/05 11:33:55;;;;;;;5.53;2.38;;;;;;;;;;5080744;28;20238;-54
2021/12/05 11:36:23;;;;;;;2.55;1.77;;;;;;;;;;5080577;28;20272;-54
2021/12/05 11:38:51;;;;;;;2.63;0.70;;;;;;;;;;5080975;28;20261;-54
2021/12/05 11:41:20;;;;;;;1.85;1.70;;;;;;;;;;5081227;28;20208;-53
2021/12/05 11:43:48;;;;;;;1.65;0.60;;;;;;;;;;5080947;28;20543;-53
2021/12/05 11:46:15;;;;;;;2.60;1.10;;;;;;;;;;5080851;28;20583;-52
2021/12/05 11:48:43;;;;;;;4.70;0.88;;;;;;;;;;5080901;28;20200;-53
2021/12/05 11:51:21;;;;;;;3.08;2.15;;;;;;;;;;5081362;28;20205;-53
2021/12/05 11:53:49;;;;;;;1.00;0.90;;;;;;;;;;5081160;28;20193;-53
2021/12/05 11:56:21;;;;;;;7.25;3.60;;;;;;;;;;5080789;28;20258;-53
2021/12/05 11:59:02;;;;;;;2.53;1.70;;;;;;;;;;5080813;28;20242;-53
2021/12/05 12:01:33;;;;;;;9.20;3.58;;;;;;;;;;5080400;28;20230;-53
2021/12/05 12:04:00;;;;;;;6.72;2.80;;;;;;;;;;5080727;28;20585;-53
2021/12/05 12:06:26;;;;;;;6.97;2.45;;;;;;;;;;5080528;28;20342;-54
2021/12/05 12:08:54;;;;;;;1.95;0.80;;;;;;;;;;5080567;28;20216;-53
2021/12/05 12:11:22;;;;;;;7.45;2.10;;;;;;;;;;5080775;28;20504;-53
2021/12/05 12:13:50;;;;;;;3.10;1.70;;;;;;;;;;5080906;28;20193;-54
2021/12/05 12:16:17;;;;;;;1.65;1.55;;;;;;;;;;5080586;28;20430;-52
2021/12/05 12:18:47;;;;;;;3.08;0.60;;;;;;;;;;5080582;28;20197;-54
2021/12/05 12:21:17;;;;;;;8.05;3.20;;;;;;;;;;5080840;28;20184;-53
2021/12/05 12:23:44;;;;;;;2.90;1.02;;;;;;;;;;5080593;28;20242;-54
2021/12/05 12:26:11;;;;;;;3.20;0.80;;;;;;;;;;5080183;28;20196;-53
2021/12/05 12:28:38;;;;;;;2.72;1.30;;;;;;;;;;5080614;28;20235;-55
2021/12/05 12:31:06;;;;;;;0.68;0.68;;;;;;;;;;5080689;28;20204;-58
2021/12/05 12:33:35;;;;;;;1.98;1.00;;;;;;;;;;5080374;28;20519;-53
2021/12/05 12:36:02;;;;;;;2.42;1.20;;;;;;;;;;5080185;28;20497;-55
2021/12/05 12:38:34;;;;;;;1.30;0.57;;;;;;;;;;5080105;28;20196;-53
2021/12/05 12:41:01;;;;;;;1.98;0.95;;;;;;;;;;5080134;28;20205;-54
2021/12/05 12:43:40;;;;;;;0.77;0.63;;;;;;;;;;5080129;28;20216;-55
2021/12/05 12:46:15;;;;;;;1.50;0.90;;;;;;;;;;5080156;28;20231;-55
2021/12/05 12:48:42;;;;;;;0.82;0.82;;;;;;;;;;5081659;28;20185;-53
2021/12/05 12:51:09;;;;;;;0.93;0.73;;;;;;;;;;5083907;28;20242;-54
2021/12/05 12:53:38;;;;;;;2.25;0.80;;;;;;;;;;5084134;28;20196;-53
2021/12/05 12:56:08;;;;;;;0.82;0.63;;;;;;;;;;5083413;28;20204;-53
2021/12/05 12:58:37;;;;;;;2.20;0.80;;;;;;;;;;5083858;28;20333;-54
2021/12/05 13:01:16;;;;;;;1.38;1.30;;;;;;;;;;5083932;28;20266;-53
2021/12/05 13:04:17;;;;;;;0.70;0.70;;;;;;;;;;5083513;28;20257;-53
2021/12/05 13:10:01;;;;;;;2.60;0.90;;;;;;;;;;5083887;28;20180;-53
2021/12/05 13:12:32;;;;;;;2.55;0.80;;;;;;;;;;5083399;28;20196;-53
2021/12/05 13:15:03;;;;;;;0.63;0.60;;;;;;;;;;5083265;28;20193;-55
2021/12/05 13:17:41;;;;;;;1.45;0.77;;;;;;;;;;5083519;28;20500;-53
2021/12/05 13:20:09;;;;;;;2.88;0.80;;;;;;;;;;5083510;28;20250;-54
2021/12/05 13:22:58;;;;;;;1.75;0.90;;;;;;;;;;5083511;28;20203;-53
2021/12/05 13:25:25;;;;;;;1.38;0.50;;;;;;;;;;5083460;28;20401;-53
2021/12/05 13:27:51;;;;;;;2.60;0.60;;;;;;;;;;5083487;28;20254;-53
2021/12/05 13:30:27;;;;;;;1.13;0.50;;;;;;;;;;5083655;28;20549;-55
2021/12/05 13:33:14;;;;;;;0.73;0.68;;;;;;;;;;5083629;28;20254;-53
2021/12/05 13:35:42;;;;;;;0.60;0.60;;;;;;;;;;5083011;28;20189;-53
2021/12/05 13:38:29;;;;;;;0.80;0.50;;;;;;;;;;5083232;28;20197;-54
2021/12/05 13:40:56;;;;;;;1.60;0.70;;;;;;;;;;5083048;28;20211;-54
2021/12/05 13:43:27;;;;;;;1.55;1.45;;;;;;;;;;5082968;28;20267;-56
2021/12/05 13:45:56;;;;;;;2.42;1.00;;;;;;;;;;5082649;28;20216;-54
2021/12/05 13:48:29;;;;;;;1.00;0.98;;;;;;;;;;5083034;28;20268;-54
2021/12/05 13:51:04;;;;;;;1.50;1.50;;;;;;;;;;5082970;28;20196;-54
2021/12/05 13:53:32;;;;;;;2.10;0.80;;;;;;;;;;5082944;28;20483;-56
2021/12/05 13:56:02;;;;;;;2.25;0.95;;;;;;;;;;5082459;28;20238;-54
2021/12/05 13:58:36;;;;;;;0.73;0.73;;;;;;;;;;5082675;28;20224;-56
2021/12/05 14:01:04;;;;;;;1.00;0.90;;;;;;;;;;5082922;28;20224;-55
2021/12/05 14:03:57;;;;;;;2.50;1.73;;;;;;;;;;5082940;28;20258;-56
2021/12/05 14:06:30;;;;;;;2.75;1.23;;;;;;;;;;5082583;28;20197;-54
2021/12/05 14:09:02;;;;;;;2.42;1.08;;;;;;;;;;5082678;28;20231;-58
2021/12/05 14:11:29;;;;;;;1.58;1.08;;;;;;;;;;5082495;28;20193;-55
2021/12/05 14:13:55;;;;;;;1.40;1.30;;;;;;;;;;5082790;28;20192;-54
2021/12/05 14:16:30;;;;;;;2.42;0.85;;;;;;;;;;5082072;28;20197;-53
2021/12/05 14:18:56;;;;;;;1.95;0.85;;;;;;;;;;5082764;28;20234;-55
2021/12/05 14:21:25;;;;;;;1.27;0.57;;;;;;;;;;5082212;28;20226;-55
2021/12/05 14:23:54;;;;;;;1.83;0.65;;;;;;;;;;5082308;28;20540;-54
2021/12/05 14:26:22;;;;;;;1.88;1.77;;;;;;;;;;5081942;28;20196;-56
2021/12/05 14:28:55;;;;;;;2.40;2.30;;;;;;;;;;5081959;28;20196;-55
2021/12/05 14:31:22;;;;;;;1.00;1.00;;;;;;;;;;5082184;28;20185;-52
2021/12/05 14:33:49;;;;;;;1.00;0.90;;;;;;;;;;5081946;28;20211;-53
2021/12/05 14:36:20;;;;;;;2.63;0.70;;;;;;;;;;5081447;28;20211;-52
2021/12/05 14:38:47;;;;;;;0.77;0.63;;;;;;;;;;5081995;28;20197;-54
2021/12/05 14:41:14;;;;;;;1.33;0.70;;;;;;;;;;5081741;28;20283;-53
2021/12/05 14:43:41;;;;;;;0.63;0.63;;;;;;;;;;5081449;28;20200;-54
2021/12/05 14:46:07;;;;;;;2.88;1.13;;;;;;;;;;5081492;28;20540;-54
2021/12/05 14:48:34;;;;;;;1.33;1.23;;;;;;;;;;5081680;28;20222;-55
2021/12/05 14:51:02;;;;;;;2.15;1.50;;;;;;;;;;5081642;28;20196;-53
2021/12/05 14:53:29;;;;;;;2.05;1.95;;;;;;;;;;5081698;28;20268;-54
2021/12/05 14:55:58;;;;;;;4.25;2.05;;;;;;;;;;5081590;28;20557;-54
2021/12/05 14:58:27;;;;;;;4.10;1.58;;;;;;;;;;5081430;28;20259;-54
2021/12/05 15:00:55;;;;;;;4.93;1.70;;;;;;;;;;5081327;28;20196;-53
2021/12/05 15:03:23;;;;;;;1.17;1.17;;;;;;;;;;5081561;28;20628;-54
2021/12/05 15:05:50;;;;;;;5.00;1.60;;;;;;;;;;5081394;28;20438;-54
2021/12/05 15:08:18;;;;;;;1.75;1.65;;;;;;;;;;5081276;28;20196;-54
2021/12/05 15:10:45;;;;;;;2.38;1.38;;;;;;;;;;5081212;28;20197;-54
2021/12/05 15:13:12;;;;;;;1.70;1.60;;;;;;;;;;5081264;28;20196;-54
2021/12/05 15:15:40;;;;;;;2.25;1.52;;;;;;;;;;5081053;28;20193;-55
2021/12/05 15:18:13;;;;;;;2.97;1.60;;;;;;;;;;5081519;28;20207;-53
2021/12/05 15:20:40;;;;;;;3.15;1.48;;;;;;;;;;5081360;28;20507;-54
2021/12/05 15:23:08;;;;;;;2.78;1.40;;;;;;;;;;5081284;28;20203;-54
2021/12/05 15:25:35;;;;;;;2.08;1.00;;;;;;;;;;5081419;28;20216;-53
2021/12/05 15:28:03;;;;;;;0.98;0.95;;;;;;;;;;5081236;28;20504;-53
2021/12/05 15:30:31;;;;;;;1.63;0.90;;;;;;;;;;5081662;28;20196;-57
2021/12/05 15:32:59;;;;;;;1.20;1.20;;;;;;;;;;5081378;28;20376;-55
2021/12/05 15:35:26;;;;;;;1.60;1.50;;;;;;;;;;5080915;28;20193;-56
2021/12/05 15:37:54;;;;;;;2.72;1.58;;;;;;;;;;5081264;28;20196;-56
2021/12/05 15:40:21;;;;;;;2.63;2.03;;;;;;;;;;5081277;28;20196;-56
2021/12/05 15:42:47;;;;;;;2.70;2.10;;;;;;;;;;5081452;28;20185;-56
2021/12/05 15:45:17;;;;;;;3.85;2.22;;;;;;;;;;5080668;28;20224;-57
2021/12/05 15:47:45;;;;;;;5.65;1.98;;;;;;;;;;5081014;28;20196;-57
2021/12/05 15:50:13;;;;;;;2.50;2.15;;;;;;;;;;5079971;28;20418;-66
2021/12/05 15:52:41;;;;;;;3.75;2.08;;;;;;;;;;5080932;28;20234;-67
2021/12/05 15:55:10;;;;;;;3.22;2.10;;;;;;;;;;5069949;28;20199;-67
2021/12/05 15:57:38;;;;;;;2.85;1.80;;;;;;;;;;5070255;28;20223;-66
2021/12/05 16:00:10;;;;;;;2.63;1.60;;;;;;;;;;5071694;28;20192;-66
2021/12/05 16:02:37;;;;;;;1.88;1.40;;;;;;;;;;5076871;28;20197;-69
2021/12/05 16:05:03;;;;;;;1.98;1.38;;;;;;;;;;5076119;28;20262;-68
2021/12/05 16:07:33;;;;;;;1.08;1.08;;;;;;;;;;5078703;28;20378;-68
2021/12/05 16:10:11;;;;;;;0.98;0.90;;;;;;;;;;5079440;28;20492;-69
2021/12/05 16:12:38;;;;;;;2.78;1.02;;;;;;;;;;5078817;28;20242;-68
2021/12/05 16:15:05;;;;;;;1.40;1.25;;;;;;;;;;5078835;28;20212;-68
2021/12/05 16:17:31;;;;;;;2.60;1.17;;;;;;;;;;5078619;28;20258;-68
2021/12/05 16:20:02;;;;;;;1.38;1.33;;;;;;;;;;5078997;28;20204;-68
2021/12/05 16:22:28;;;;;;;1.20;1.20;;;;;;;;;;5079369;28;20513;-68
2021/12/05 16:24:56;;;;;;;4.35;1.38;;;;;;;;;;5083153;28;20247;-69
2021/12/05 16:27:23;;;;;;;1.50;1.40;;;;;;;;;;5083056;28;20531;-68
2021/12/05 16:29:49;;;;;;;1.63;1.20;;;;;;;;;;5082273;28;20264;-68
2021/12/05 16:32:15;;;;;;;1.10;1.10;;;;;;;;;;5083454;28;20204;-68
2021/12/05 16:34:46;;;;;;;1.42;1.23;;;;;;;;;;5082406;28;20234;-68
2021/12/05 16:37:14;;;;;;;1.35;1.35;;;;;;;;;;5082935;28;20199;-68
2021/12/05 16:39:42;;;;;;;1.38;1.27;;;;;;;;;;5082914;28;20367;-68
2021/12/05 16:42:11;;;;;;;1.15;1.05;;;;;;;;;;5083350;28;20250;-67
2021/12/05 16:44:40;;;;;;;1.05;1.05;;;;;;;;;;5083759;28;20228;-68
2021/12/05 16:47:10;;;;;;;1.60;1.50;;;;;;;;;;5083307;28;20235;-68
2021/12/05 16:49:37;;;;;;;1.30;1.20;;;;;;;;;;5082984;28;20208;-67
2021/12/05 16:52:05;;;;;;;1.45;1.35;;;;;;;;;;5082913;28;20247;-68
2021/12/05 16:54:34;;;;;;;1.90;1.80;;;;;;;;;;5082437;28;20471;-66
2021/12/05 16:57:07;;;;;;;2.30;2.10;;;;;;;;;;5081262;28;20204;-66
2021/12/05 16:59:40;;;;;;;2.40;2.22;;;;;;;;;;5081184;28;20228;-67
2021/12/05 17:02:08;;;;;;;2.25;2.05;;;;;;;;;;5081080;28;20204;-66
2021/12/05 17:04:43;;;;;;;2.90;1.92;;;;;;;;;;5081248;28;20204;-66
2021/12/05 17:07:13;;;;;;;1.85;1.75;;;;;;;;;;5081276;28;20207;-66
2021/12/05 17:09:40;;;;;;;1.83;1.73;;;;;;;;;;5080514;28;20193;-66
2021/12/05 17:12:24;;;;;;;2.50;2.28;;;;;;;;;;5061623;28;20255;-68
2021/12/05 17:14:52;;;;;;;2.40;2.20;;;;;;;;;;5062218;28;20205;-68
2021/12/05 17:17:31;;;;;;;2.45;2.00;;;;;;;;;;5062120;28;20205;-68
2021/12/05 17:19:57;;;;;;;3.63;1.77;;;;;;;;;;5061871;28;20204;-68
2021/12/05 17:22:23;;;;;;;2.85;1.73;;;;;;;;;;5062405;28;20205;-68
2021/12/05 17:24:51;;;;;;;2.95;2.10;;;;;;;;;;5061643;28;20229;-68
2021/12/05 17:27:18;;;;;;;5.55;2.97;;;;;;;;;;5062607;28;20232;-68
2021/12/05 17:29:45;;;;;;;3.08;2.88;;;;;;;;;;5063231;28;20528;-68
2021/12/05 17:32:15;;;;;;;3.03;2.83;;;;;;;;;;5063070;28;20205;-69
2021/12/05 17:34:45;;;;;;;2.92;2.45;;;;;;;;;;5062822;28;20205;-68
2021/12/05 17:37:13;;;;;;;2.33;2.13;;;;;;;;;;5062141;28;20193;-67
2021/12/05 17:39:41;;;;;;;3.92;2.20;;;;;;;;;;5061763;28;20205;-68
2021/12/05 17:42:09;;;;;;;2.30;2.08;;;;;;;;;;5061599;28;20220;-68
2021/12/05 17:44:36;;;;;;;4.28;2.33;;;;;;;;;;5061728;28;20533;-68
2021/12/05 17:47:04;;;;;;;2.45;2.20;;;;;;;;;;5061484;28;20205;-66
2021/12/05 17:49:33;;;;;;;3.42;3.17;;;;;;;;;;5061684;28;20205;-66
2021/12/05 17:52:00;;;;;;;4.97;3.60;;;;;;;;;;5061554;28;20213;-66
2021/12/05 17:54:32;;;;;;;4.25;3.53;;;;;;;;;;5061589;28;20504;-66
2021/12/05 17:57:05;;;;;;;3.72;3.50;;;;;;;;;;5061274;28;20201;-66
2021/12/05 17:59:47;;;;;;;4.75;4.25;;;;;;;;;;5064102;28;20192;-67
2021/12/05 18:04:59;;;;;;;4.47;3.67;;;;;;;;;;5080759;28;20199;-66
2021/12/05 18:07:26;;;;;;;5.78;3.83;;;;;;;;;;5081366;28;20204;-66
2021/12/05 18:09:52;;;;;;;3.58;3.33;;;;;;;;;;5081052;28;20333;-67
2021/12/05 18:12:22;;;;;;;4.07;3.72;;;;;;;;;;5081196;28;20420;-67
2021/12/05 18:14:49;;;;;;;6.65;3.58;;;;;;;;;;5080747;28;20584;-68
2021/12/05 18:17:16;;;;;;;4.22;3.65;;;;;;;;;;5081355;28;20250;-67
2021/12/05 18:19:43;;;;;;;5.00;3.75;;;;;;;;;;5081423;28;20513;-67
2021/12/05 18:22:12;;;;;;;5.80;3.47;;;;;;;;;;5081388;28;20572;-66
2021/12/05 18:24:40;;;;;;;3.42;3.13;;;;;;;;;;5080922;28;20211;-67
2021/12/05 18:27:07;;;;;;;6.18;4.35;;;;;;;;;;5080944;28;20228;-68
2021/12/05 18:29:33;;;;;;;4.80;4.13;;;;;;;;;;5080816;28;20204;-67
2021/12/05 18:32:00;;;;;;;7.65;4.53;;;;;;;;;;5081899;28;20437;-67
2021/12/05 18:34:29;;;;;;;5.75;4.90;;;;;;;;;;5080906;28;20652;-67
2021/12/05 18:36:57;;;;;;;4.70;4.30;;;;;;;;;;5079656;28;20212;-66
2021/12/05 18:39:27;;;;;;;5.13;4.32;;;;;;;;;;5080715;28;20398;-67
2021/12/05 18:41:55;;;;;;;5.43;4.93;;;;;;;;;;5080648;28;20401;-66
2021/12/05 18:44:26;;;;;;;5.53;5.03;;;;;;;;;;5080579;28;20208;-66
2021/12/05 18:46:54;;;;;;;5.82;4.97;;;;;;;;;;5080019;28;20279;-67
2021/12/05 18:49:21;;;;;;;7.55;4.63;;;;;;;;;;5080631;28;20228;-67
2021/12/05 18:51:47;;;;;;;7.32;5.60;;;;;;;;;;5080607;28;20271;-67
2021/12/05 18:54:14;;;;;;;4.80;4.40;;;;;;;;;;5080476;28;20204;-67
2021/12/05 18:56:42;;;;;;;5.25;4.72;;;;;;;;;;5080481;28;20200;-66
2021/12/05 18:59:09;;;;;;;8.00;5.00;;;;;;;;;;5080378;28;20204;-66
2021/12/05 19:04:26;;;;;;;4.43;4.13;;;;;;;;;;5080215;28;20553;-67